Decoded Metar for KFHR (FRIDAY HARBOR in WA, USA) (IATA:FHR) | Meteo·Mobile Aviation Weather
aviador You're here:

KFHR Decoded Metar

FRIDAY HARBOR in WA, USA
Report Time2018-08-19 04:53:00
UTC Time2018-08-19 05:27:43
Flight Rules vfr VFR
WindCalm
Visibility9999 m
Phenomena:N/A
Clouds:N/A
Expected CloudBase > 800 ft AGL from Temp-Dew spread
CeilingNone
Temp13°C (ISA -2)
Dew Point11°C (88% RH)
QNH1020 hPa
Density Alt-167 ft
Elevation105 ft
Report Wrong Elevation
Raw Report
KFHR 190453Z AUTO 00000KT 10SM CLR 13/11 A3012 RMK AO2 SLP200
T01330111 TSNO=

Extra information for KFHR:More info

Metar Taf Metar & Taf Last 4 Metars F.Rules Stats Wind Profile Meteogram Temp Stats Airport Information Weather charts Add Link Nearby VenuesMetar ALERT Operation Metar Decoded Social comments

AIRNAV info for KFHR
Kenmore Air